Ellen Essberger — CQLS — position and weather

sailwx.info

Track history (hours):
 
Tides and Currents Weather Stations Pressure Air Temp Water Temp Dewpoint Dewpoint Depression Visibility Wind Speed Wind Dir Waves Ship Positions

Ellen Essberger

Last reported at 2018-Feb-22 01:00 UTC. Time now 2018-Feb-22 01:21 UTC.
Position N 51°54' E 004°20'.

Length 118 m; draft 7.4 m.

Type: Ship (hazmat cat C). MMSI: 255805340.

Date/timePositionNaut miles runAvg speedWind from/ knotsBaromVisibWave heightAir tempDewpointWater temp
2018-Feb-22 01:00N 51°54' E 004°20'0 0.0
2018-Feb-22 00:27N 51°54' E 004°20'0 0.0
2018-Feb-22 00:00N 51°54' E 004°20'0 0.0
2018-Feb-21 23:30N 51°54' E 004°20'0 0.0
2018-Feb-21 23:00N 51°54' E 004°20'0 0.0
2018-Feb-21 22:30N 51°54' E 004°20'0 0.0
2018-Feb-21 22:00N 51°54' E 004°20'0 0.0
2018-Feb-21 21:30N 51°54' E 004°20'0 0.0
2018-Feb-21 21:00N 51°54' E 004°20'0 0.0
2018-Feb-21 20:30N 51°54' E 004°20'0 0.0
2018-Feb-21 20:00N 51°54' E 004°20'0 0.0
2018-Feb-21 19:30N 51°54' E 004°20'0 0.0
2018-Feb-21 19:00N 51°54' E 004°20'0 0.0
2018-Feb-21 18:27N 51°54' E 004°20'0 0.0
2018-Feb-21 17:57N 51°54' E 004°20'0 0.0
2018-Feb-21 17:30N 51°54' E 004°20'0 0.0
2018-Feb-21 17:00N 51°54' E 004°20'0 0.0
2018-Feb-21 16:30N 51°54' E 004°20'0 0.0
2018-Feb-21 16:00N 51°54' E 004°20'0 0.0
2018-Feb-21 15:30N 51°54' E 004°20'0 0.0
2018-Feb-21 15:00N 51°54' E 004°20'0 0.0
2018-Feb-21 14:30N 51°54' E 004°20'0 0.0
2018-Feb-21 14:00N 51°54' E 004°20'0 0.0
2018-Feb-21 13:30N 51°54' E 004°20'0 0.0
2018-Feb-21 13:00N 51°54' E 004°20'0 0.0
2018-Feb-21 12:21N 51°54' E 004°20'0 0.0
2018-Feb-21 12:00N 51°54' E 004°20'0 0.0
2018-Feb-21 11:30N 51°54' E 004°20'0 0.0
2018-Feb-21 11:00N 51°54' E 004°20'0 0.0
2018-Feb-21 10:30N 51°54' E 004°20'0 0.0
2018-Feb-21 10:00N 51°54' E 004°20'0 0.0
2018-Feb-21 09:31N 51°54' E 004°20'0 0.6
2018-Feb-21 09:01N 51°54' E 004°19'4 7.9
2018-Feb-21 08:30N 51°56' E 004°13'5 9.6
2018-Feb-21 08:00N 51°58' E 004°07'510.1
2018-Feb-21 07:31N 51°60' E 003°59'611.4
2018-Feb-21 06:59N 52°00' E 003°50'4 8.4
2018-Feb-21 06:30N 51°59' E 003°43'4812.5
2018-Feb-21 02:39N 51°41' E 002°31'212.5
2018-Feb-21 02:29N 51°39' E 002°29'612.3
2018-Feb-21 02:00N 51°35' E 002°23'611.9
2018-Feb-21 01:30N 51°30' E 002°16'511.2
2018-Feb-21 01:01N 51°26' E 002°11'5 9.4
2018-Feb-21 00:30N 51°22' E 002°08'510.2
2018-Feb-21 00:00N 51°17' E 002°05'5 9.0
2018-Feb-20 23:30N 51°13' E 002°01'5 9.2
2018-Feb-20 23:01N 51°11' E 001°55'5 9.0
2018-Feb-20 22:30N 51°08' E 001°49'4 8.7
2018-Feb-20 22:00N 51°05' E 001°45'5 9.1
2018-Feb-20 21:31N 51°01' E 001°40'5 8.9
2018-Feb-20 20:59N 50°58' E 001°35'5 9.4
2018-Feb-20 20:29N 50°55' E 001°30'5610.3
2018-Feb-20 15:02N 50°23' E 000°17'111.3
2018-Feb-20 14:58N 50°23' E 000°16'511.4
2018-Feb-20 14:30N 50°21' E 000°08'611.8
2018-Feb-20 14:00N 50°20' W 000°01'612.4
2018-Feb-20 13:30N 50°18' W 000°10'3714.1
2018-Feb-20 10:52N 50°08' W 001°06'715.3
2018-Feb-20 10:26N 50°06' W 001°16'715.4
2018-Feb-20 10:00N 50°04' W 001°26'815.4
2018-Feb-20 09:31N 50°02' W 001°37'814.9
2018-Feb-20 09:00N 50°00' W 001°49'714.4
2018-Feb-20 08:30N 49°58' W 001°59'3412.1
2018-Feb-20 05:43N 49°49' W 002°50'210.8
2018-Feb-20 05:30N 49°49' W 002°53'1410.4
2018-Feb-20 04:11N 49°42' W 003°11'4910.4
2018-Feb-19 23:28N 49°17' W 004°17'610.9
2018-Feb-19 22:56N 49°14' W 004°24'1011.1
2018-Feb-19 22:02N 49°09' W 004°37'211.5
2018-Feb-19 21:50N 49°08' W 004°40'3512.5
2018-Feb-19 19:05N 48°50' W 005°26'  
2018-Feb-14 16:53N 32°17' W 009°19'  
Track history (hours):
 
Tides and Currents Weather Stations Pressure Air Temp Water Temp Dewpoint Dewpoint Depression Visibility Wind Speed Wind Dir Waves Ship Positions

Ellen Essberger

Last reported at 2018-Feb-22 01:00 UTC. Time now 2018-Feb-22 01:21 UTC.
Position N 51°54' E 004°20'.

Length 118 m; draft 7.4 m.

Type: Ship (hazmat cat C). MMSI: 255805340.

Date/timePositionNaut miles runAvg speedWind from/ knotsBaromVisibWave heightAir tempDewpointWater temp
2018-Feb-22 01:00N 51°54' E 004°20'0 0.0
2018-Feb-22 00:27N 51°54' E 004°20'0 0.0
2018-Feb-22 00:00N 51°54' E 004°20'0 0.0
2018-Feb-21 23:30N 51°54' E 004°20'0 0.0
2018-Feb-21 23:00N 51°54' E 004°20'0 0.0
2018-Feb-21 22:30N 51°54' E 004°20'0 0.0
2018-Feb-21 22:00N 51°54' E 004°20'0 0.0
2018-Feb-21 21:30N 51°54' E 004°20'0 0.0
2018-Feb-21 21:00N 51°54' E 004°20'0 0.0
2018-Feb-21 20:30N 51°54' E 004°20'0 0.0
2018-Feb-21 20:00N 51°54' E 004°20'0 0.0
2018-Feb-21 19:30N 51°54' E 004°20'0 0.0
2018-Feb-21 19:00N 51°54' E 004°20'0 0.0
2018-Feb-21 18:27N 51°54' E 004°20'0 0.0
2018-Feb-21 17:57N 51°54' E 004°20'0 0.0
2018-Feb-21 17:30N 51°54' E 004°20'0 0.0
2018-Feb-21 17:00N 51°54' E 004°20'0 0.0
2018-Feb-21 16:30N 51°54' E 004°20'0 0.0
2018-Feb-21 16:00N 51°54' E 004°20'0 0.0
2018-Feb-21 15:30N 51°54' E 004°20'0 0.0
2018-Feb-21 15:00N 51°54' E 004°20'0 0.0
2018-Feb-21 14:30N 51°54' E 004°20'0 0.0
2018-Feb-21 14:00N 51°54' E 004°20'0 0.0
2018-Feb-21 13:30N 51°54' E 004°20'0 0.0
2018-Feb-21 13:00N 51°54' E 004°20'0 0.0
2018-Feb-21 12:21N 51°54' E 004°20'0 0.0
2018-Feb-21 12:00N 51°54' E 004°20'0 0.0
2018-Feb-21 11:30N 51°54' E 004°20'0 0.0
2018-Feb-21 11:00N 51°54' E 004°20'0 0.0
2018-Feb-21 10:30N 51°54' E 004°20'0 0.0
2018-Feb-21 10:00N 51°54' E 004°20'0 0.0
2018-Feb-21 09:31N 51°54' E 004°20'0 0.6
2018-Feb-21 09:01N 51°54' E 004°19'4 7.9
2018-Feb-21 08:30N 51°56' E 004°13'5 9.6
2018-Feb-21 08:00N 51°58' E 004°07'510.1
2018-Feb-21 07:31N 51°60' E 003°59'611.4
2018-Feb-21 06:59N 52°00' E 003°50'4 8.4
2018-Feb-21 06:30N 51°59' E 003°43'4812.5
2018-Feb-21 02:39N 51°41' E 002°31'212.5
2018-Feb-21 02:29N 51°39' E 002°29'612.3
2018-Feb-21 02:00N 51°35' E 002°23'611.9
2018-Feb-21 01:30N 51°30' E 002°16'511.2
2018-Feb-21 01:01N 51°26' E 002°11'5 9.4
2018-Feb-21 00:30N 51°22' E 002°08'510.2
2018-Feb-21 00:00N 51°17' E 002°05'5 9.0
2018-Feb-20 23:30N 51°13' E 002°01'5 9.2
2018-Feb-20 23:01N 51°11' E 001°55'5 9.0
2018-Feb-20 22:30N 51°08' E 001°49'4 8.7
2018-Feb-20 22:00N 51°05' E 001°45'5 9.1
2018-Feb-20 21:31N 51°01' E 001°40'5 8.9
2018-Feb-20 20:59N 50°58' E 001°35'5 9.4
2018-Feb-20 20:29N 50°55' E 001°30'5610.3
2018-Feb-20 15:02N 50°23' E 000°17'111.3
2018-Feb-20 14:58N 50°23' E 000°16'511.4
2018-Feb-20 14:30N 50°21' E 000°08'611.8
2018-Feb-20 14:00N 50°20' W 000°01'612.4
2018-Feb-20 13:30N 50°18' W 000°10'3714.1
2018-Feb-20 10:52N 50°08' W 001°06'715.3
2018-Feb-20 10:26N 50°06' W 001°16'715.4
2018-Feb-20 10:00N 50°04' W 001°26'815.4
2018-Feb-20 09:31N 50°02' W 001°37'814.9
2018-Feb-20 09:00N 50°00' W 001°49'714.4
2018-Feb-20 08:30N 49°58' W 001°59'3412.1
2018-Feb-20 05:43N 49°49' W 002°50'210.8
2018-Feb-20 05:30N 49°49' W 002°53'1410.4
2018-Feb-20 04:11N 49°42' W 003°11'4910.4
2018-Feb-19 23:28N 49°17' W 004°17'610.9
2018-Feb-19 22:56N 49°14' W 004°24'1011.1
2018-Feb-19 22:02N 49°09' W 004°37'211.5
2018-Feb-19 21:50N 49°08' W 004°40'3512.5
2018-Feb-19 19:05N 48°50' W 005°26'  
2018-Feb-14 16:53N 32°17' W 009°19'  

Dump ship's entire track history